sensor_id;sensor_type;location;lat;lon;timestamp;temperature;humidity
23748;DHT22;12054;53.662;10.126;2023-02-28T00:00:03;4.10;99.90
23748;DHT22;12054;53.662;10.126;2023-02-28T00:02:36;4.10;99.90
23748;DHT22;12054;53.662;10.126;2023-02-28T00:05:01;4.10;99.90
23748;DHT22;12054;53.662;10.126;2023-02-28T00:07:29;4.10;99.90
23748;DHT22;12054;53.662;10.126;2023-02-28T00:09:55;4.10;99.90
23748;DHT22;12054;53.662;10.126;2023-02-28T00:12:20;4.10;99.90
23748;DHT22;12054;53.662;10.126;2023-02-28T00:14:46;4.10;99.90
23748;DHT22;12054;53.662;10.126;2023-02-28T00:17:11;4.10;99.90
23748;DHT22;12054;53.662;10.126;2023-02-28T00:19:37;4.10;99.90
23748;DHT22;12054;53.662;10.126;2023-02-28T00:22:02;4.00;99.90
23748;DHT22;12054;53.662;10.126;2023-02-28T00:24:28;4.00;99.90
23748;DHT22;12054;53.662;10.126;2023-02-28T00:26:53;4.00;99.90
23748;DHT22;12054;53.662;10.126;2023-02-28T00:29:19;4.00;99.90
23748;DHT22;12054;53.662;10.126;2023-02-28T00:31:44;4.00;99.90
23748;DHT22;12054;53.662;10.126;2023-02-28T00:34:10;4.00;99.90
23748;DHT22;12054;53.662;10.126;2023-02-28T00:36:35;4.00;99.90
23748;DHT22;12054;53.662;10.126;2023-02-28T00:39:01;4.00;99.90
23748;DHT22;12054;53.662;10.126;2023-02-28T00:41:26;4.00;99.90
23748;DHT22;12054;53.662;10.126;2023-02-28T00:43:52;4.00;99.90
23748;DHT22;12054;53.662;10.126;2023-02-28T00:46:17;3.90;99.90
23748;DHT22;12054;53.662;10.126;2023-02-28T00:48:43;3.90;99.90
23748;DHT22;12054;53.662;10.126;2023-02-28T00:51:08;3.90;99.90
23748;DHT22;12054;53.662;10.126;2023-02-28T00:53:34;3.90;99.90
23748;DHT22;12054;53.662;10.126;2023-02-28T00:56:00;3.90;99.90
23748;DHT22;12054;53.662;10.126;2023-02-28T00:58:26;3.90;99.90
23748;DHT22;12054;53.662;10.126;2023-02-28T01:00:52;3.90;99.90
23748;DHT22;12054;53.662;10.126;2023-02-28T01:03:19;3.90;99.90
23748;DHT22;12054;53.662;10.126;2023-02-28T01:05:45;3.80;99.90
23748;DHT22;12054;53.662;10.126;2023-02-28T01:08:11;3.80;99.90
23748;DHT22;12054;53.662;10.126;2023-02-28T01:10:37;3.80;99.90
23748;DHT22;12054;53.662;10.126;2023-02-28T01:13:03;3.80;99.90
23748;DHT22;12054;53.662;10.126;2023-02-28T01:15:29;3.80;99.90
23748;DHT22;12054;53.662;10.126;2023-02-28T01:17:54;3.80;99.90
23748;DHT22;12054;53.662;10.126;2023-02-28T01:20:20;3.80;99.90
23748;DHT22;12054;53.662;10.126;2023-02-28T01:22:45;3.80;99.90
23748;DHT22;12054;53.662;10.126;2023-02-28T01:25:12;3.80;99.90
23748;DHT22;12054;53.662;10.126;2023-02-28T01:27:38;3.80;99.90
23748;DHT22;12054;53.662;10.126;2023-02-28T01:30:05;3.80;99.90
23748;DHT22;12054;53.662;10.126;2023-02-28T01:32:31;3.80;99.90
23748;DHT22;12054;53.662;10.126;2023-02-28T01:34:57;3.80;99.90
23748;DHT22;12054;53.662;10.126;2023-02-28T01:37:22;3.70;99.90
23748;DHT22;12054;53.662;10.126;2023-02-28T01:39:48;3.70;99.90
23748;DHT22;12054;53.662;10.126;2023-02-28T01:42:13;3.70;99.90
23748;DHT22;12054;53.662;10.126;2023-02-28T01:44:59;3.70;99.90
23748;DHT22;12054;53.662;10.126;2023-02-28T01:47:29;3.70;99.90
23748;DHT22;12054;53.662;10.126;2023-02-28T01:49:55;3.70;99.90
23748;DHT22;12054;53.662;10.126;2023-02-28T01:52:22;3.70;99.90
23748;DHT22;12054;53.662;10.126;2023-02-28T01:54:52;3.70;99.90
23748;DHT22;12054;53.662;10.126;2023-02-28T01:57:22;3.70;99.90
23748;DHT22;12054;53.662;10.126;2023-02-28T02:00:00;3.60;99.90
23748;DHT22;12054;53.662;10.126;2023-02-28T02:02:27;3.60;99.90
23748;DHT22;12054;53.662;10.126;2023-02-28T02:05:03;3.60;99.90
23748;DHT22;12054;53.662;10.126;2023-02-28T02:07:32;3.60;99.90
23748;DHT22;12054;53.662;10.126;2023-02-28T02:18:35;3.60;99.90
23748;DHT22;12054;53.662;10.126;2023-02-28T02:23:52;3.50;99.90
23748;DHT22;12054;53.662;10.126;2023-02-28T02:37:25;3.50;99.90
23748;DHT22;12054;53.662;10.126;2023-02-28T02:40:12;3.50;99.90
23748;DHT22;12054;53.662;10.126;2023-02-28T02:42:46;3.50;99.90
23748;DHT22;12054;53.662;10.126;2023-02-28T02:45:28;3.50;99.90
23748;DHT22;12054;53.662;10.126;2023-02-28T02:48:02;3.50;99.90
23748;DHT22;12054;53.662;10.126;2023-02-28T02:50:36;3.40;99.90
23748;DHT22;12054;53.662;10.126;2023-02-28T02:53:05;3.40;99.90
23748;DHT22;12054;53.662;10.126;2023-02-28T02:55:34;3.40;99.90
23748;DHT22;12054;53.662;10.126;2023-02-28T02:58:03;3.40;99.90
23748;DHT22;12054;53.662;10.126;2023-02-28T03:00:37;3.40;99.90
23748;DHT22;12054;53.662;10.126;2023-02-28T03:03:05;3.40;99.90
23748;DHT22;12054;53.662;10.126;2023-02-28T03:05:49;3.40;99.90
23748;DHT22;12054;53.662;10.126;2023-02-28T03:08:15;3.30;99.90
23748;DHT22;12054;53.662;10.126;2023-02-28T03:10:46;3.30;99.90
23748;DHT22;12054;53.662;10.126;2023-02-28T03:19:01;3.30;99.90
23748;DHT22;12054;53.662;10.126;2023-02-28T03:21:43;3.20;99.90
23748;DHT22;12054;53.662;10.126;2023-02-28T03:24:34;3.20;99.90
23748;DHT22;12054;53.662;10.126;2023-02-28T03:27:33;3.20;99.90
23748;DHT22;12054;53.662;10.126;2023-02-28T03:30:09;3.20;99.90
23748;DHT22;12054;53.662;10.126;2023-02-28T03:32:36;3.20;99.90
23748;DHT22;12054;53.662;10.126;2023-02-28T03:35:32;3.20;99.90
23748;DHT22;12054;53.662;10.126;2023-02-28T03:40:40;3.10;99.90
23748;DHT22;12054;53.662;10.126;2023-02-28T03:43:12;3.10;99.90
23748;DHT22;12054;53.662;10.126;2023-02-28T03:45:39;3.10;99.90
23748;DHT22;12054;53.662;10.126;2023-02-28T03:48:22;3.00;99.90
23748;DHT22;12054;53.662;10.126;2023-02-28T03:50:55;3.00;99.90
23748;DHT22;12054;53.662;10.126;2023-02-28T03:53:27;3.00;99.90
23748;DHT22;12054;53.662;10.126;2023-02-28T03:56:08;3.00;99.90
23748;DHT22;12054;53.662;10.126;2023-02-28T03:58:59;3.00;99.90
23748;DHT22;12054;53.662;10.126;2023-02-28T04:01:35;2.90;99.90
23748;DHT22;12054;53.662;10.126;2023-02-28T04:04:02;2.90;99.90
23748;DHT22;12054;53.662;10.126;2023-02-28T04:06:31;2.90;99.90
23748;DHT22;12054;53.662;10.126;2023-02-28T04:08:56;2.90;99.90
23748;DHT22;12054;53.662;10.126;2023-02-28T04:11:44;2.80;99.90
23748;DHT22;12054;53.662;10.126;2023-02-28T04:14:11;2.90;99.90
23748;DHT22;12054;53.662;10.126;2023-02-28T04:16:38;2.80;99.90
23748;DHT22;12054;53.662;10.126;2023-02-28T04:19:06;2.80;99.90
23748;DHT22;12054;53.662;10.126;2023-02-28T04:21:33;2.80;99.90
23748;DHT22;12054;53.662;10.126;2023-02-28T04:23:59;2.80;99.90
23748;DHT22;12054;53.662;10.126;2023-02-28T04:26:28;2.70;99.90
23748;DHT22;12054;53.662;10.126;2023-02-28T04:28:55;2.70;99.90
23748;DHT22;12054;53.662;10.126;2023-02-28T04:31:21;2.70;99.90
23748;DHT22;12054;53.662;10.126;2023-02-28T04:33:46;2.60;99.90
23748;DHT22;12054;53.662;10.126;2023-02-28T04:36:11;2.60;99.90
23748;DHT22;12054;53.662;10.126;2023-02-28T04:38:38;2.60;99.90
23748;DHT22;12054;53.662;10.126;2023-02-28T04:41:05;2.60;99.90
23748;DHT22;12054;53.662;10.126;2023-02-28T04:43:31;2.50;99.90
23748;DHT22;12054;53.662;10.126;2023-02-28T04:45:58;2.50;99.90
23748;DHT22;12054;53.662;10.126;2023-02-28T04:48:24;2.50;99.90
23748;DHT22;12054;53.662;10.126;2023-02-28T04:50:51;2.50;99.90
23748;DHT22;12054;53.662;10.126;2023-02-28T04:53:17;2.50;99.90
23748;DHT22;12054;53.662;10.126;2023-02-28T04:55:43;2.40;99.90
23748;DHT22;12054;53.662;10.126;2023-02-28T04:58:09;2.40;99.90
23748;DHT22;12054;53.662;10.126;2023-02-28T05:00:34;2.40;99.90
23748;DHT22;12054;53.662;10.126;2023-02-28T05:03:00;2.40;99.90
23748;DHT22;12054;53.662;10.126;2023-02-28T05:05:25;2.30;99.90
23748;DHT22;12054;53.662;10.126;2023-02-28T05:07:51;2.30;99.90
23748;DHT22;12054;53.662;10.126;2023-02-28T05:10:17;2.30;99.90
23748;DHT22;12054;53.662;10.126;2023-02-28T05:12:42;2.30;99.90
23748;DHT22;12054;53.662;10.126;2023-02-28T05:15:12;2.30;99.90
23748;DHT22;12054;53.662;10.126;2023-02-28T05:17:38;2.20;99.90
23748;DHT22;12054;53.662;10.126;2023-02-28T05:20:04;2.20;99.90
23748;DHT22;12054;53.662;10.126;2023-02-28T05:22:30;2.20;99.90
23748;DHT22;12054;53.662;10.126;2023-02-28T05:24:55;2.20;99.90
23748;DHT22;12054;53.662;10.126;2023-02-28T05:27:21;2.10;99.90
23748;DHT22;12054;53.662;10.126;2023-02-28T05:29:46;2.10;99.90
23748;DHT22;12054;53.662;10.126;2023-02-28T05:32:12;2.10;99.90
23748;DHT22;12054;53.662;10.126;2023-02-28T05:34:39;2.10;99.90
23748;DHT22;12054;53.662;10.126;2023-02-28T05:37:05;2.10;99.90
23748;DHT22;12054;53.662;10.126;2023-02-28T05:39:32;2.10;99.90
23748;DHT22;12054;53.662;10.126;2023-02-28T05:41:57;2.00;99.90
23748;DHT22;12054;53.662;10.126;2023-02-28T05:44:23;2.00;99.90
23748;DHT22;12054;53.662;10.126;2023-02-28T05:46:48;2.00;99.90
23748;DHT22;12054;53.662;10.126;2023-02-28T05:49:14;2.00;99.90
23748;DHT22;12054;53.662;10.126;2023-02-28T05:51:39;2.00;99.90
23748;DHT22;12054;53.662;10.126;2023-02-28T05:54:06;2.00;99.90
23748;DHT22;12054;53.662;10.126;2023-02-28T05:56:32;1.90;99.90
23748;DHT22;12054;53.662;10.126;2023-02-28T05:59:00;1.90;99.90
23748;DHT22;12054;53.662;10.126;2023-02-28T06:01:39;1.80;99.90
23748;DHT22;12054;53.662;10.126;2023-02-28T06:04:07;1.90;99.90
23748;DHT22;12054;53.662;10.126;2023-02-28T06:06:33;1.80;99.90
23748;DHT22;12054;53.662;10.126;2023-02-28T06:09:06;1.90;99.90
23748;DHT22;12054;53.662;10.126;2023-02-28T06:11:32;1.80;99.90
23748;DHT22;12054;53.662;10.126;2023-02-28T06:13:58;1.80;99.90
23748;DHT22;12054;53.662;10.126;2023-02-28T06:16:25;1.80;99.90
23748;DHT22;12054;53.662;10.126;2023-02-28T06:18:51;1.80;99.90
23748;DHT22;12054;53.662;10.126;2023-02-28T06:21:18;1.70;99.90
23748;DHT22;12054;53.662;10.126;2023-02-28T06:23:44;1.70;99.90
23748;DHT22;12054;53.662;10.126;2023-02-28T06:26:10;1.70;99.90
23748;DHT22;12054;53.662;10.126;2023-02-28T06:28:36;1.70;99.90
23748;DHT22;12054;53.662;10.126;2023-02-28T06:31:10;1.70;99.90
23748;DHT22;12054;53.662;10.126;2023-02-28T06:33:37;1.70;99.90
23748;DHT22;12054;53.662;10.126;2023-02-28T06:36:04;1.70;99.90
23748;DHT22;12054;53.662;10.126;2023-02-28T06:38:30;1.70;99.90
23748;DHT22;12054;53.662;10.126;2023-02-28T06:40:57;1.60;99.90
23748;DHT22;12054;53.662;10.126;2023-02-28T06:43:24;1.60;99.90
23748;DHT22;12054;53.662;10.126;2023-02-28T06:45:54;1.60;99.90
23748;DHT22;12054;53.662;10.126;2023-02-28T06:48:20;1.60;99.90
23748;DHT22;12054;53.662;10.126;2023-02-28T06:50:45;1.60;99.90
23748;DHT22;12054;53.662;10.126;2023-02-28T06:53:12;1.60;99.90
23748;DHT22;12054;53.662;10.126;2023-02-28T06:55:38;1.60;99.90
23748;DHT22;12054;53.662;10.126;2023-02-28T06:58:04;1.60;99.90
23748;DHT22;12054;53.662;10.126;2023-02-28T07:00:40;1.60;99.90
23748;DHT22;12054;53.662;10.126;2023-02-28T07:03:06;1.60;99.90
23748;DHT22;12054;53.662;10.126;2023-02-28T07:05:34;1.60;99.90
23748;DHT22;12054;53.662;10.126;2023-02-28T07:07:59;1.60;99.90
23748;DHT22;12054;53.662;10.126;2023-02-28T07:10:25;1.60;99.90
23748;DHT22;12054;53.662;10.126;2023-02-28T07:12:50;1.60;99.90
23748;DHT22;12054;53.662;10.126;2023-02-28T07:15:16;1.60;99.90
23748;DHT22;12054;53.662;10.126;2023-02-28T07:17:42;1.50;99.90
23748;DHT22;12054;53.662;10.126;2023-02-28T07:20:08;1.50;99.90
23748;DHT22;12054;53.662;10.126;2023-02-28T07:22:33;1.50;99.90
23748;DHT22;12054;53.662;10.126;2023-02-28T07:24:59;1.50;99.90
23748;DHT22;12054;53.662;10.126;2023-02-28T07:27:24;1.50;99.90
23748;DHT22;12054;53.662;10.126;2023-02-28T07:29:51;1.50;99.90
23748;DHT22;12054;53.662;10.126;2023-02-28T07:32:16;1.50;99.90
23748;DHT22;12054;53.662;10.126;2023-02-28T07:34:42;1.50;99.90
23748;DHT22;12054;53.662;10.126;2023-02-28T07:37:07;1.50;99.90
23748;DHT22;12054;53.662;10.126;2023-02-28T07:39:33;1.70;99.90
23748;DHT22;12054;53.662;10.126;2023-02-28T07:41:58;1.90;99.90
23748;DHT22;12054;53.662;10.126;2023-02-28T07:44:25;1.90;99.90
23748;DHT22;12054;53.662;10.126;2023-02-28T07:46:51;2.10;99.90
23748;DHT22;12054;53.662;10.126;2023-02-28T07:49:18;2.20;99.90
23748;DHT22;12054;53.662;10.126;2023-02-28T07:51:43;2.40;99.90
23748;DHT22;12054;53.662;10.126;2023-02-28T07:54:09;2.50;99.90
23748;DHT22;12054;53.662;10.126;2023-02-28T07:56:34;2.70;99.90
23748;DHT22;12054;53.662;10.126;2023-02-28T07:59:00;2.80;99.90
23748;DHT22;12054;53.662;10.126;2023-02-28T08:01:26;3.10;99.90
23748;DHT22;12054;53.662;10.126;2023-02-28T08:03:52;3.40;99.90
23748;DHT22;12054;53.662;10.126;2023-02-28T08:06:22;3.60;99.90
23748;DHT22;12054;53.662;10.126;2023-02-28T08:08:48;4.00;99.90
23748;DHT22;12054;53.662;10.126;2023-02-28T08:11:15;4.30;99.90
23748;DHT22;12054;53.662;10.126;2023-02-28T08:13:41;4.50;99.90
23748;DHT22;12054;53.662;10.126;2023-02-28T08:16:07;4.80;99.90
23748;DHT22;12054;53.662;10.126;2023-02-28T08:18:33;5.10;99.90
23748;DHT22;12054;53.662;10.126;2023-02-28T08:20:58;5.30;99.90
23748;DHT22;12054;53.662;10.126;2023-02-28T08:23:24;5.50;99.90
23748;DHT22;12054;53.662;10.126;2023-02-28T08:25:54;5.80;99.90
23748;DHT22;12054;53.662;10.126;2023-02-28T08:28:20;6.00;99.90
23748;DHT22;12054;53.662;10.126;2023-02-28T08:30:46;6.20;99.90
23748;DHT22;12054;53.662;10.126;2023-02-28T08:33:11;6.40;99.90
23748;DHT22;12054;53.662;10.126;2023-02-28T08:35:37;6.70;99.90
23748;DHT22;12054;53.662;10.126;2023-02-28T08:38:02;6.90;99.90
23748;DHT22;12054;53.662;10.126;2023-02-28T08:40:28;7.10;99.90
23748;DHT22;12054;53.662;10.126;2023-02-28T08:42:53;7.40;99.90
23748;DHT22;12054;53.662;10.126;2023-02-28T08:45:19;7.60;99.90
23748;DHT22;12054;53.662;10.126;2023-02-28T08:47:46;7.70;99.90
23748;DHT22;12054;53.662;10.126;2023-02-28T08:50:11;7.80;99.90
23748;DHT22;12054;53.662;10.126;2023-02-28T08:52:42;8.00;99.90
23748;DHT22;12054;53.662;10.126;2023-02-28T08:55:08;8.20;99.90
23748;DHT22;12054;53.662;10.126;2023-02-28T08:57:34;8.30;99.90
23748;DHT22;12054;53.662;10.126;2023-02-28T09:00:00;8.50;99.90
23748;DHT22;12054;53.662;10.126;2023-02-28T09:02:30;8.60;99.90
23748;DHT22;12054;53.662;10.126;2023-02-28T09:04:55;8.80;99.90
23748;DHT22;12054;53.662;10.126;2023-02-28T09:07:21;8.80;99.90
23748;DHT22;12054;53.662;10.126;2023-02-28T09:09:46;8.80;99.90
23748;DHT22;12054;53.662;10.126;2023-02-28T09:12:22;8.80;99.90
23748;DHT22;12054;53.662;10.126;2023-02-28T09:14:47;8.80;99.90
23748;DHT22;12054;53.662;10.126;2023-02-28T09:17:13;8.90;99.90
23748;DHT22;12054;53.662;10.126;2023-02-28T09:19:38;8.90;99.90
23748;DHT22;12054;53.662;10.126;2023-02-28T09:22:04;9.00;99.90
23748;DHT22;12054;53.662;10.126;2023-02-28T09:24:29;9.00;99.90
23748;DHT22;12054;53.662;10.126;2023-02-28T09:26:57;9.10;99.90
23748;DHT22;12054;53.662;10.126;2023-02-28T09:29:22;9.20;99.90
23748;DHT22;12054;53.662;10.126;2023-02-28T09:31:48;9.30;99.90
23748;DHT22;12054;53.662;10.126;2023-02-28T09:34:13;9.30;99.90
23748;DHT22;12054;53.662;10.126;2023-02-28T09:36:39;9.40;99.90
23748;DHT22;12054;53.662;10.126;2023-02-28T09:39:05;9.50;99.90
23748;DHT22;12054;53.662;10.126;2023-02-28T09:41:39;9.50;99.80
23748;DHT22;12054;53.662;10.126;2023-02-28T09:44:18;9.60;99.30
23748;DHT22;12054;53.662;10.126;2023-02-28T09:46:47;9.60;99.00
23748;DHT22;12054;53.662;10.126;2023-02-28T09:49:19;9.70;98.70
23748;DHT22;12054;53.662;10.126;2023-02-28T09:54:22;9.80;98.10
23748;DHT22;12054;53.662;10.126;2023-02-28T10:02:40;9.90;97.30
23748;DHT22;12054;53.662;10.126;2023-02-28T10:05:14;9.90;97.70
23748;DHT22;12054;53.662;10.126;2023-02-28T10:13:04;10.00;96.80
23748;DHT22;12054;53.662;10.126;2023-02-28T10:15:31;10.10;96.20
23748;DHT22;12054;53.662;10.126;2023-02-28T10:18:04;10.10;95.80
23748;DHT22;12054;53.662;10.126;2023-02-28T10:20:33;10.20;95.40
23748;DHT22;12054;53.662;10.126;2023-02-28T10:23:09;10.20;95.20
23748;DHT22;12054;53.662;10.126;2023-02-28T10:25:38;10.20;94.80
23748;DHT22;12054;53.662;10.126;2023-02-28T10:28:13;10.20;94.60
23748;DHT22;12054;53.662;10.126;2023-02-28T10:30:45;10.20;94.30
23748;DHT22;12054;53.662;10.126;2023-02-28T10:33:39;10.10;94.50
23748;DHT22;12054;53.662;10.126;2023-02-28T10:36:05;10.10;94.50
23748;DHT22;12054;53.662;10.126;2023-02-28T10:38:37;10.10;94.50
23748;DHT22;12054;53.662;10.126;2023-02-28T10:41:29;10.20;94.00
23748;DHT22;12054;53.662;10.126;2023-02-28T10:44:13;10.30;93.70
23748;DHT22;12054;53.662;10.126;2023-02-28T10:46:40;10.30;93.70
23748;DHT22;12054;53.662;10.126;2023-02-28T10:49:14;10.30;93.50
23748;DHT22;12054;53.662;10.126;2023-02-28T10:51:41;10.30;92.70
23748;DHT22;12054;53.662;10.126;2023-02-28T10:54:19;10.30;92.50
23748;DHT22;12054;53.662;10.126;2023-02-28T10:56:46;10.30;92.90
23748;DHT22;12054;53.662;10.126;2023-02-28T10:59:31;10.30;92.80
23748;DHT22;12054;53.662;10.126;2023-02-28T11:01:58;10.20;92.70
23748;DHT22;12054;53.662;10.126;2023-02-28T11:09:36;10.10;92.10
23748;DHT22;12054;53.662;10.126;2023-02-28T11:12:06;10.10;91.70
23748;DHT22;12054;53.662;10.126;2023-02-28T11:14:38;10.10;91.40
23748;DHT22;12054;53.662;10.126;2023-02-28T11:17:14;10.10;91.00
23748;DHT22;12054;53.662;10.126;2023-02-28T11:19:51;10.10;90.70
23748;DHT22;12054;53.662;10.126;2023-02-28T11:22:26;10.10;90.60
23748;DHT22;12054;53.662;10.126;2023-02-28T11:24:56;10.10;89.70
23748;DHT22;12054;53.662;10.126;2023-02-28T11:29:55;10.20;87.90
23748;DHT22;12054;53.662;10.126;2023-02-28T11:32:26;10.10;86.60
23748;DHT22;12054;53.662;10.126;2023-02-28T11:37:51;10.00;88.20
23748;DHT22;12054;53.662;10.126;2023-02-28T11:40:21;10.10;88.20
23748;DHT22;12054;53.662;10.126;2023-02-28T11:45:54;10.10;88.50
23748;DHT22;12054;53.662;10.126;2023-02-28T11:51:28;10.00;88.50
23748;DHT22;12054;53.662;10.126;2023-02-28T11:56:48;10.00;90.40
23748;DHT22;12054;53.662;10.126;2023-02-28T11:59:29;10.00;90.20
23748;DHT22;12054;53.662;10.126;2023-02-28T12:05:12;10.00;91.00
23748;DHT22;12054;53.662;10.126;2023-02-28T12:08:09;10.00;91.70
23748;DHT22;12054;53.662;10.126;2023-02-28T12:10:46;10.00;91.60
23748;DHT22;12054;53.662;10.126;2023-02-28T12:13:33;10.10;90.50
23748;DHT22;12054;53.662;10.126;2023-02-28T12:16:20;10.20;89.30
23748;DHT22;12054;53.662;10.126;2023-02-28T12:27:02;10.30;84.00
23748;DHT22;12054;53.662;10.126;2023-02-28T12:29:37;10.30;83.80
23748;DHT22;12054;53.662;10.126;2023-02-28T12:32:30;10.30;83.60
23748;DHT22;12054;53.662;10.126;2023-02-28T12:34:58;10.30;83.30
23748;DHT22;12054;53.662;10.126;2023-02-28T12:37:40;10.40;83.40
23748;DHT22;12054;53.662;10.126;2023-02-28T12:40:17;10.40;85.70
23748;DHT22;12054;53.662;10.126;2023-02-28T12:42:57;10.30;84.60
23748;DHT22;12054;53.662;10.126;2023-02-28T12:45:27;10.40;83.30
23748;DHT22;12054;53.662;10.126;2023-02-28T12:48:07;10.40;82.20
23748;DHT22;12054;53.662;10.126;2023-02-28T12:50:34;10.30;80.60
23748;DHT22;12054;53.662;10.126;2023-02-28T12:53:25;10.30;80.90
23748;DHT22;12054;53.662;10.126;2023-02-28T12:56:14;10.30;83.50
23748;DHT22;12054;53.662;10.126;2023-02-28T12:58:49;10.40;86.80
23748;DHT22;12054;53.662;10.126;2023-02-28T13:01:36;10.40;88.10
23748;DHT22;12054;53.662;10.126;2023-02-28T13:04:28;10.40;86.70
23748;DHT22;12054;53.662;10.126;2023-02-28T13:07:25;10.40;84.60
23748;DHT22;12054;53.662;10.126;2023-02-28T13:10:00;10.30;84.80
23748;DHT22;12054;53.662;10.126;2023-02-28T13:12:27;10.40;85.10
23748;DHT22;12054;53.662;10.126;2023-02-28T13:15:16;10.40;85.00
23748;DHT22;12054;53.662;10.126;2023-02-28T13:17:48;10.50;85.50
23748;DHT22;12054;53.662;10.126;2023-02-28T13:20:19;10.50;86.80
23748;DHT22;12054;53.662;10.126;2023-02-28T13:22:48;10.50;84.70
23748;DHT22;12054;53.662;10.126;2023-02-28T13:27:49;10.40;82.70
23748;DHT22;12054;53.662;10.126;2023-02-28T13:38:54;10.40;83.40
23748;DHT22;12054;53.662;10.126;2023-02-28T13:46:26;10.30;82.50
23748;DHT22;12054;53.662;10.126;2023-02-28T13:48:51;10.40;81.90
23748;DHT22;12054;53.662;10.126;2023-02-28T13:51:38;10.40;79.30
23748;DHT22;12054;53.662;10.126;2023-02-28T13:54:27;10.40;79.00
23748;DHT22;12054;53.662;10.126;2023-02-28T14:02:32;10.30;81.90
23748;DHT22;12054;53.662;10.126;2023-02-28T14:07:45;10.30;83.80
23748;DHT22;12054;53.662;10.126;2023-02-28T14:12:55;10.30;83.90
23748;DHT22;12054;53.662;10.126;2023-02-28T14:18:33;10.30;84.40
23748;DHT22;12054;53.662;10.126;2023-02-28T14:24:00;10.20;83.50
23748;DHT22;12054;53.662;10.126;2023-02-28T14:26:37;10.20;82.80
23748;DHT22;12054;53.662;10.126;2023-02-28T14:29:16;10.20;80.90
23748;DHT22;12054;53.662;10.126;2023-02-28T14:32:10;10.10;78.50
23748;DHT22;12054;53.662;10.126;2023-02-28T14:34:44;10.10;77.90
23748;DHT22;12054;53.662;10.126;2023-02-28T14:37:19;10.00;77.90
23748;DHT22;12054;53.662;10.126;2023-02-28T14:39:46;10.00;79.00
23748;DHT22;12054;53.662;10.126;2023-02-28T14:42:31;10.00;80.10
23748;DHT22;12054;53.662;10.126;2023-02-28T14:44:57;10.00;81.00
23748;DHT22;12054;53.662;10.126;2023-02-28T14:47:27;10.00;81.50
23748;DHT22;12054;53.662;10.126;2023-02-28T14:49:53;9.90;82.10
23748;DHT22;12054;53.662;10.126;2023-02-28T14:52:22;9.90;80.70
23748;DHT22;12054;53.662;10.126;2023-02-28T14:55:00;9.80;79.10
23748;DHT22;12054;53.662;10.126;2023-02-28T14:57:34;9.70;80.00
23748;DHT22;12054;53.662;10.126;2023-02-28T15:00:16;9.70;79.90
23748;DHT22;12054;53.662;10.126;2023-02-28T15:02:42;9.70;79.70
23748;DHT22;12054;53.662;10.126;2023-02-28T15:07:43;9.60;79.40
23748;DHT22;12054;53.662;10.126;2023-02-28T15:10:13;9.60;78.70
23748;DHT22;12054;53.662;10.126;2023-02-28T15:12:41;9.60;77.40
23748;DHT22;12054;53.662;10.126;2023-02-28T15:15:15;9.60;76.90
23748;DHT22;12054;53.662;10.126;2023-02-28T15:17:46;9.50;76.10
23748;DHT22;12054;53.662;10.126;2023-02-28T15:20:15;9.50;74.70
23748;DHT22;12054;53.662;10.126;2023-02-28T15:22:42;9.40;73.90
23748;DHT22;12054;53.662;10.126;2023-02-28T15:25:10;9.30;75.00
23748;DHT22;12054;53.662;10.126;2023-02-28T15:27:44;9.30;75.40
23748;DHT22;12054;53.662;10.126;2023-02-28T15:30:29;9.30;77.30
23748;DHT22;12054;53.662;10.126;2023-02-28T15:33:07;9.30;76.80
23748;DHT22;12054;53.662;10.126;2023-02-28T15:35:42;9.20;76.90
23748;DHT22;12054;53.662;10.126;2023-02-28T15:38:27;9.20;77.10
23748;DHT22;12054;53.662;10.126;2023-02-28T15:40:58;9.20;77.40
23748;DHT22;12054;53.662;10.126;2023-02-28T15:43:32;9.10;77.60
23748;DHT22;12054;53.662;10.126;2023-02-28T15:48:36;9.10;77.40
23748;DHT22;12054;53.662;10.126;2023-02-28T15:51:20;9.00;76.00
23748;DHT22;12054;53.662;10.126;2023-02-28T15:53:52;9.00;75.10
23748;DHT22;12054;53.662;10.126;2023-02-28T15:56:29;8.90;74.60
23748;DHT22;12054;53.662;10.126;2023-02-28T15:58:58;8.90;74.80
23748;DHT22;12054;53.662;10.126;2023-02-28T16:01:27;8.90;75.30
23748;DHT22;12054;53.662;10.126;2023-02-28T16:04:12;8.90;76.60
23748;DHT22;12054;53.662;10.126;2023-02-28T16:06:40;8.90;77.60
23748;DHT22;12054;53.662;10.126;2023-02-28T16:09:14;8.80;77.60
23748;DHT22;12054;53.662;10.126;2023-02-28T16:11:47;8.80;77.70
23748;DHT22;12054;53.662;10.126;2023-02-28T16:14:17;8.80;78.40
23748;DHT22;12054;53.662;10.126;2023-02-28T16:16:46;8.80;78.30
23748;DHT22;12054;53.662;10.126;2023-02-28T16:19:12;8.70;77.80
23748;DHT22;12054;53.662;10.126;2023-02-28T16:21:37;8.70;78.00
23748;DHT22;12054;53.662;10.126;2023-02-28T16:24:03;8.70;78.30
23748;DHT22;12054;53.662;10.126;2023-02-28T16:26:28;8.60;78.50
23748;DHT22;12054;53.662;10.126;2023-02-28T16:28:54;8.60;79.10
23748;DHT22;12054;53.662;10.126;2023-02-28T16:31:20;8.60;79.50
23748;DHT22;12054;53.662;10.126;2023-02-28T16:33:46;8.60;80.00
23748;DHT22;12054;53.662;10.126;2023-02-28T16:36:21;8.60;80.00
23748;DHT22;12054;53.662;10.126;2023-02-28T16:38:46;8.60;80.00
23748;DHT22;12054;53.662;10.126;2023-02-28T16:41:16;8.60;80.30
23748;DHT22;12054;53.662;10.126;2023-02-28T16:43:47;8.50;80.90
23748;DHT22;12054;53.662;10.126;2023-02-28T16:46:14;8.50;81.50
23748;DHT22;12054;53.662;10.126;2023-02-28T16:48:40;8.40;82.40
23748;DHT22;12054;53.662;10.126;2023-02-28T16:51:10;8.40;81.90
23748;DHT22;12054;53.662;10.126;2023-02-28T16:53:36;8.40;82.30
23748;DHT22;12054;53.662;10.126;2023-02-28T16:56:02;8.30;82.50
23748;DHT22;12054;53.662;10.126;2023-02-28T16:58:27;8.30;82.80
23748;DHT22;12054;53.662;10.126;2023-02-28T17:00:53;8.30;83.20
23748;DHT22;12054;53.662;10.126;2023-02-28T17:03:26;8.20;83.60
23748;DHT22;12054;53.662;10.126;2023-02-28T17:05:52;8.10;83.90
23748;DHT22;12054;53.662;10.126;2023-02-28T17:08:18;8.10;84.10
23748;DHT22;12054;53.662;10.126;2023-02-28T17:10:44;8.00;84.40
23748;DHT22;12054;53.662;10.126;2023-02-28T17:13:09;8.00;84.90
23748;DHT22;12054;53.662;10.126;2023-02-28T17:15:36;7.90;85.30
23748;DHT22;12054;53.662;10.126;2023-02-28T17:18:03;7.90;85.60
23748;DHT22;12054;53.662;10.126;2023-02-28T17:20:29;7.80;86.00
23748;DHT22;12054;53.662;10.126;2023-02-28T17:22:55;7.80;86.10
23748;DHT22;12054;53.662;10.126;2023-02-28T17:25:21;7.70;86.40
23748;DHT22;12054;53.662;10.126;2023-02-28T17:27:47;7.70;86.70
23748;DHT22;12054;53.662;10.126;2023-02-28T17:30:25;7.60;86.90
23748;DHT22;12054;53.662;10.126;2023-02-28T17:32:53;7.60;87.80
23748;DHT22;12054;53.662;10.126;2023-02-28T17:35:18;7.50;87.30
23748;DHT22;12054;53.662;10.126;2023-02-28T17:37:44;7.50;87.50